Time;durP1;ratioP1;P1;durP2;ratioP2;P2;SDS_P1;SDS_P2;PMS_P1;PMS_P2;Temp;Humidity;BMP_temperature;BMP_pressure;BME280_temperature;BME280_humidity;BME280_pressure;Samples;Min_cycle;Max_cycle;Signal;HPM_P1;HPM_P2
2022/03/26 00:01:38;;;;;;;;;;;7.00;99.90;;;;;;5096770;28;19916;-76
2022/03/26 00:04:05;;;;;;;;;;;6.90;99.90;;;;;;5091900;28;19915;-76
2022/03/26 00:06:31;;;;;;;;;;;6.90;99.90;;;;;;5092293;28;19908;-76
2022/03/26 00:08:57;;;;;;;;;;;6.90;99.90;;;;;;5092131;28;19961;-76
2022/03/26 00:11:22;;;;;;;;;;;6.90;99.90;;;;;;5090808;28;19908;-76
2022/03/26 00:13:48;;;;;;;;;;;6.80;99.90;;;;;;5091658;28;20006;-74
2022/03/26 00:16:13;;;;;;;;;;;6.80;99.90;;;;;;5093745;28;19915;-75
2022/03/26 00:18:39;;;;;;;;;;;6.80;99.90;;;;;;5096493;28;20404;-75
2022/03/26 00:21:05;;;;;;;;;;;6.80;99.90;;;;;;5095512;28;19939;-75
2022/03/26 00:23:30;;;;;;;;;;;6.80;99.90;;;;;;5095385;28;19908;-76
2022/03/26 00:25:58;;;;;;;;;;;6.70;99.90;;;;;;5094809;28;20065;-76
2022/03/26 00:28:24;;;;;;;;;;;6.70;99.90;;;;;;5095645;28;19915;-76
2022/03/26 00:30:50;;;;;;;;;;;6.70;99.90;;;;;;5094576;28;19912;-76
2022/03/26 00:33:16;;;;;;;;;;;6.70;99.90;;;;;;5095329;28;19909;-76
2022/03/26 00:35:42;;;;;;;;;;;6.60;99.90;;;;;;5095205;28;19915;-76
2022/03/26 00:38:08;;;;;;;;;;;6.70;99.90;;;;;;5094978;28;20387;-76
2022/03/26 00:40:33;;;;;;;;;;;6.60;99.90;;;;;;5091255;28;19920;-76
2022/03/26 00:42:59;;;;;;;;;;;6.50;99.90;;;;;;5094167;28;19931;-76
2022/03/26 00:45:26;;;;;;;;;;;6.40;99.90;;;;;;5092867;28;20395;-76
2022/03/26 00:47:52;;;;;;;;;;;6.30;99.90;;;;;;5094016;28;19935;-76
2022/03/26 00:50:17;;;;;;;;;;;6.30;99.90;;;;;;5094671;28;20353;-76
2022/03/26 00:52:43;;;;;;;;;;;6.20;99.90;;;;;;5094802;28;19953;-76
2022/03/26 00:55:09;;;;;;;;;;;6.20;99.90;;;;;;5094714;28;19919;-76
2022/03/26 00:57:36;;;;;;;;;;;6.20;99.90;;;;;;5094464;28;19920;-76
2022/03/26 01:00:01;;;;;;;;;;;6.10;99.90;;;;;;5094207;28;19991;-76
2022/03/26 01:02:27;;;;;;;;;;;6.20;99.90;;;;;;5094632;28;20275;-76
2022/03/26 01:04:53;;;;;;;;;;;6.20;99.90;;;;;;5094347;28;20101;-76
2022/03/26 01:07:18;;;;;;;;;;;6.20;99.90;;;;;;5093772;28;19916;-76
2022/03/26 01:09:44;;;;;;;;;;;6.20;99.90;;;;;;5094140;28;19908;-76
2022/03/26 01:12:10;;;;;;;;;;;6.20;99.90;;;;;;5094678;28;20325;-76
2022/03/26 01:14:35;;;;;;;;;;;6.20;99.90;;;;;;5094324;28;19915;-76
2022/03/26 01:17:01;;;;;;;;;;;6.20;99.90;;;;;;5098542;28;19908;-76
2022/03/26 01:19:27;;;;;;;;;;;6.20;99.90;;;;;;5098291;28;19912;-76
2022/03/26 01:21:52;;;;;;;;;;;6.20;99.90;;;;;;5094110;28;19915;-75
2022/03/26 01:24:18;;;;;;;;;;;6.10;99.90;;;;;;5095119;28;19908;-75
2022/03/26 01:26:44;;;;;;;;;;;6.10;99.90;;;;;;5093135;28;19955;-75
2022/03/26 01:29:09;;;;;;;;;;;6.00;99.90;;;;;;5094242;28;19955;-75
2022/03/26 01:31:35;;;;;;;;;;;5.90;99.90;;;;;;5074400;28;20353;-75
2022/03/26 01:34:01;;;;;;;;;;;5.80;99.90;;;;;;5074013;28;19909;-76
2022/03/26 01:36:28;;;;;;;;;;;5.70;99.90;;;;;;5074693;28;19962;-76
2022/03/26 01:38:53;;;;;;;;;;;5.70;99.90;;;;;;5073549;28;20292;-75
2022/03/26 01:41:19;;;;;;;;;;;5.70;99.90;;;;;;5074132;28;19920;-76
2022/03/26 01:43:46;;;;;;;;;;;5.70;99.90;;;;;;5074248;28;19936;-75
2022/03/26 01:46:11;;;;;;;;;;;5.70;99.90;;;;;;5074098;28;19908;-76
2022/03/26 01:48:38;;;;;;;;;;;5.70;99.90;;;;;;5074051;28;20266;-75
2022/03/26 01:51:14;;;;;;;;;;;5.60;99.90;;;;;;5073697;28;20399;-75
2022/03/26 01:53:43;;;;;;;;;;;5.70;99.90;;;;;;5073776;28;20251;-75
2022/03/26 01:56:09;;;;;;;;;;;5.70;99.90;;;;;;5073542;28;19920;-75
2022/03/26 01:58:35;;;;;;;;;;;5.70;99.90;;;;;;5073844;28;19908;-75
2022/03/26 02:01:01;;;;;;;;;;;5.70;99.90;;;;;;5073381;28;19916;-75
2022/03/26 02:03:26;;;;;;;;;;;5.70;99.90;;;;;;5074008;28;19912;-75
2022/03/26 02:05:52;;;;;;;;;;;5.60;99.90;;;;;;5073392;28;20269;-75
2022/03/26 02:08:18;;;;;;;;;;;5.60;99.90;;;;;;5073878;28;19913;-75
2022/03/26 02:10:43;;;;;;;;;;;5.60;99.90;;;;;;5073495;28;19908;-75
2022/03/26 02:13:09;;;;;;;;;;;5.60;99.90;;;;;;5105668;28;19920;-75
2022/03/26 02:15:37;;;;;;;;;;;5.60;99.90;;;;;;5073902;28;19909;-75
2022/03/26 02:18:03;;;;;;;;;;;5.60;99.90;;;;;;5072987;28;19908;-75
2022/03/26 02:20:30;;;;;;;;;;;5.60;99.90;;;;;;5073731;28;19964;-75
2022/03/26 02:22:56;;;;;;;;;;;5.60;99.90;;;;;;5072551;28;19924;-75
2022/03/26 02:25:22;;;;;;;;;;;5.60;99.90;;;;;;5072278;28;19912;-75
2022/03/26 02:27:48;;;;;;;;;;;5.50;99.90;;;;;;5072086;28;20373;-75
2022/03/26 02:30:13;;;;;;;;;;;5.50;99.90;;;;;;5072921;28;19944;-75
2022/03/26 02:32:39;;;;;;;;;;;5.50;99.90;;;;;;5078819;28;20359;-75
2022/03/26 02:35:05;;;;;;;;;;;5.50;99.90;;;;;;5075593;28;19980;-75
2022/03/26 02:37:31;;;;;;;;;;;5.50;99.90;;;;;;5073379;28;20374;-75
2022/03/26 02:39:57;;;;;;;;;;;5.50;99.90;;;;;;5072662;28;19961;-75
2022/03/26 02:42:22;;;;;;;;;;;5.40;99.90;;;;;;5073297;28;20413;-75
2022/03/26 02:44:48;;;;;;;;;;;5.40;99.90;;;;;;5073174;28;20284;-75
2022/03/26 02:47:13;;;;;;;;;;;5.40;99.90;;;;;;5072553;28;19908;-75
2022/03/26 02:49:39;;;;;;;;;;;5.50;99.90;;;;;;5072881;28;19954;-75
2022/03/26 02:52:05;;;;;;;;;;;5.40;99.90;;;;;;5072430;28;19948;-75
2022/03/26 02:54:30;;;;;;;;;;;5.50;99.90;;;;;;5073249;28;19913;-75
2022/03/26 02:56:56;;;;;;;;;;;5.50;99.90;;;;;;5072002;28;19981;-75
2022/03/26 02:59:22;;;;;;;;;;;5.50;99.90;;;;;;5072981;28;19963;-75
2022/03/26 03:01:48;;;;;;;;;;;5.40;99.90;;;;;;5073115;28;19939;-75
2022/03/26 03:04:13;;;;;;;;;;;5.40;99.90;;;;;;5071998;28;19955;-75
2022/03/26 03:06:39;;;;;;;;;;;5.40;99.90;;;;;;5072829;28;19916;-76
2022/03/26 03:09:05;;;;;;;;;;;5.40;99.90;;;;;;5071849;28;20007;-75
2022/03/26 03:11:31;;;;;;;;;;;5.40;99.90;;;;;;5072823;28;19915;-75
2022/03/26 03:13:57;;;;;;;;;;;5.40;99.90;;;;;;5072012;28;19908;-75
2022/03/26 03:16:22;;;;;;;;;;;5.40;99.90;;;;;;5072635;28;19961;-75
2022/03/26 03:18:48;;;;;;;;;;;5.40;99.90;;;;;;5072664;28;19999;-75
2022/03/26 03:21:13;;;;;;;;;;;5.40;99.90;;;;;;5071976;28;19920;-76
2022/03/26 03:23:39;;;;;;;;;;;5.30;99.90;;;;;;5072684;28;19912;-75
2022/03/26 03:26:05;;;;;;;;;;;5.20;99.90;;;;;;5072033;28;19991;-75
2022/03/26 03:28:30;;;;;;;;;;;5.20;99.90;;;;;;5072904;28;19908;-75
2022/03/26 03:30:56;;;;;;;;;;;5.20;99.90;;;;;;5072102;28;19947;-75
2022/03/26 03:33:21;;;;;;;;;;;5.20;99.90;;;;;;5072859;28;20391;-75
2022/03/26 03:35:47;;;;;;;;;;;5.10;99.90;;;;;;5072734;28;19908;-75
2022/03/26 03:38:13;;;;;;;;;;;5.10;99.90;;;;;;5072135;28;20146;-75
2022/03/26 03:40:38;;;;;;;;;;;5.10;99.90;;;;;;5072868;28;19917;-74
2022/03/26 03:43:05;;;;;;;;;;;5.20;99.90;;;;;;5072082;28;19915;-75
2022/03/26 03:45:30;;;;;;;;;;;5.20;99.90;;;;;;5072741;28;19909;-75
2022/03/26 03:47:56;;;;;;;;;;;5.20;99.90;;;;;;5080620;28;19979;-75
2022/03/26 03:50:21;;;;;;;;;;;5.20;99.90;;;;;;5073305;28;19909;-74
2022/03/26 03:52:47;;;;;;;;;;;5.10;99.90;;;;;;5075128;28;19961;-75
2022/03/26 03:55:13;;;;;;;;;;;5.10;99.90;;;;;;5075953;28;19908;-75
2022/03/26 03:57:42;;;;;;;;;;;5.00;99.90;;;;;;5076437;28;20222;-75
2022/03/26 04:00:08;;;;;;;;;;;5.00;99.90;;;;;;5075254;28;19923;-75
2022/03/26 04:02:34;;;;;;;;;;;5.00;99.90;;;;;;5076212;28;20449;-75
2022/03/26 04:05:00;;;;;;;;;;;5.00;99.90;;;;;;5075629;28;19982;-75
2022/03/26 04:07:25;;;;;;;;;;;5.00;99.90;;;;;;5075758;28;19912;-75
2022/03/26 04:09:51;;;;;;;;;;;5.00;99.90;;;;;;5074991;28;19991;-76
2022/03/26 04:12:17;;;;;;;;;;;5.00;99.90;;;;;;5075522;28;20421;-75
2022/03/26 04:14:43;;;;;;;;;;;4.90;99.90;;;;;;5075611;28;19991;-75
2022/03/26 04:17:10;;;;;;;;;;;4.80;99.90;;;;;;5075372;28;20269;-75
2022/03/26 04:19:36;;;;;;;;;;;4.70;99.90;;;;;;5075938;28;19954;-75
2022/03/26 04:22:02;;;;;;;;;;;4.70;99.90;;;;;;5075452;28;19913;-75
2022/03/26 04:24:28;;;;;;;;;;;4.70;99.90;;;;;;5075944;28;19959;-75
2022/03/26 04:26:53;;;;;;;;;;;4.70;99.90;;;;;;5075953;28;19908;-76
2022/03/26 04:29:19;;;;;;;;;;;4.80;99.90;;;;;;5075652;28;20361;-75
2022/03/26 04:31:46;;;;;;;;;;;4.70;99.90;;;;;;5075590;28;19909;-75
2022/03/26 04:34:11;;;;;;;;;;;4.70;99.90;;;;;;5075273;28;19912;-75
2022/03/26 04:36:37;;;;;;;;;;;4.70;99.90;;;;;;5075528;28;20019;-75
2022/03/26 04:39:03;;;;;;;;;;;4.70;99.90;;;;;;5075180;28;20360;-75
2022/03/26 04:41:28;;;;;;;;;;;4.70;99.90;;;;;;5075509;28;19923;-75
2022/03/26 04:43:54;;;;;;;;;;;4.70;99.90;;;;;;5075991;28;19931;-76
2022/03/26 04:46:19;;;;;;;;;;;4.60;99.90;;;;;;5075015;28;19912;-76
2022/03/26 04:48:48;;;;;;;;;;;4.60;99.90;;;;;;5075319;28;19909;-75
2022/03/26 04:51:14;;;;;;;;;;;4.60;99.90;;;;;;5074969;28;19913;-76
2022/03/26 04:53:39;;;;;;;;;;;4.60;99.90;;;;;;5075535;28;19917;-75
2022/03/26 04:56:05;;;;;;;;;;;4.60;99.90;;;;;;5074426;28;19927;-75
2022/03/26 04:58:31;;;;;;;;;;;4.60;99.90;;;;;;5075396;28;19916;-75
2022/03/26 05:00:56;;;;;;;;;;;4.70;99.90;;;;;;5075240;28;20007;-75
2022/03/26 05:03:22;;;;;;;;;;;4.70;99.90;;;;;;5078557;28;19934;-75
2022/03/26 05:05:47;;;;;;;;;;;4.60;99.90;;;;;;5079993;28;19908;-76
2022/03/26 05:08:13;;;;;;;;;;;4.50;99.90;;;;;;5073460;28;19951;-76
2022/03/26 05:10:39;;;;;;;;;;;4.50;99.90;;;;;;5073828;28;19912;-76
2022/03/26 05:13:04;;;;;;;;;;;4.50;99.90;;;;;;5074458;28;19916;-75
2022/03/26 05:15:30;;;;;;;;;;;4.50;99.90;;;;;;5074723;28;20325;-76
2022/03/26 05:17:56;;;;;;;;;;;4.50;99.90;;;;;;5074451;28;20452;-75
2022/03/26 05:20:22;;;;;;;;;;;4.50;99.90;;;;;;5073925;28;20010;-75
2022/03/26 05:22:48;;;;;;;;;;;4.40;99.90;;;;;;5074741;28;20011;-75
2022/03/26 05:25:15;;;;;;;;;;;4.30;99.90;;;;;;5073593;28;19977;-76
2022/03/26 05:27:47;;;;;;;;;;;4.20;99.90;;;;;;5074928;28;19954;-75
2022/03/26 05:30:13;;;;;;;;;;;4.20;99.90;;;;;;5074064;28;20369;-75
2022/03/26 05:32:39;;;;;;;;;;;4.10;99.90;;;;;;5073172;28;20014;-75
2022/03/26 05:35:11;;;;;;;;;;;4.20;99.90;;;;;;5073811;28;19909;-75
2022/03/26 05:37:43;;;;;;;;;;;4.20;99.90;;;;;;5074219;28;19908;-75
2022/03/26 05:40:10;;;;;;;;;;;4.20;99.90;;;;;;5073748;28;20358;-75
2022/03/26 05:42:36;;;;;;;;;;;4.20;99.90;;;;;;5074075;28;20370;-75
2022/03/26 05:45:05;;;;;;;;;;;4.20;99.90;;;;;;5074279;28;19959;-75
2022/03/26 05:47:31;;;;;;;;;;;4.20;99.90;;;;;;5074773;28;19909;-75
2022/03/26 05:49:57;;;;;;;;;;;4.20;99.90;;;;;;5074369;28;20390;-75
2022/03/26 05:52:23;;;;;;;;;;;4.10;99.90;;;;;;5072455;28;20004;-75
2022/03/26 05:54:48;;;;;;;;;;;4.10;99.90;;;;;;5074654;28;19915;-75
2022/03/26 05:57:14;;;;;;;;;;;4.10;99.90;;;;;;5073479;28;19920;-75
2022/03/26 05:59:39;;;;;;;;;;;4.10;99.90;;;;;;5074031;28;19955;-75
2022/03/26 06:02:05;;;;;;;;;;;4.10;99.90;;;;;;5073649;28;19915;-75
2022/03/26 06:04:31;;;;;;;;;;;4.10;99.90;;;;;;5073948;28;20358;-76
2022/03/26 06:06:56;;;;;;;;;;;4.10;99.90;;;;;;5072737;28;19959;-75
2022/03/26 06:09:22;;;;;;;;;;;4.10;99.90;;;;;;5073333;28;20353;-75
2022/03/26 06:11:47;;;;;;;;;;;4.10;99.90;;;;;;5073913;28;19908;-75
2022/03/26 06:14:13;;;;;;;;;;;4.10;99.90;;;;;;5072859;28;20353;-75
2022/03/26 06:16:39;;;;;;;;;;;4.20;99.90;;;;;;5073801;28;19912;-75
2022/03/26 06:19:05;;;;;;;;;;;4.10;99.90;;;;;;5074056;28;19908;-75
2022/03/26 06:21:30;;;;;;;;;;;4.20;99.90;;;;;;5076199;28;19920;-75
2022/03/26 06:23:58;;;;;;;;;;;4.30;99.90;;;;;;5073606;28;19912;-75
2022/03/26 06:26:25;;;;;;;;;;;4.30;99.90;;;;;;5072690;28;19908;-76
2022/03/26 06:28:51;;;;;;;;;;;4.20;99.90;;;;;;5073408;28;19908;-76
2022/03/26 06:31:17;;;;;;;;;;;4.10;99.90;;;;;;5071755;28;19908;-75
2022/03/26 06:33:42;;;;;;;;;;;4.00;99.90;;;;;;5073527;28;20263;-75
2022/03/26 06:36:08;;;;;;;;;;;3.90;99.90;;;;;;5073275;28;20417;-75
2022/03/26 06:38:38;;;;;;;;;;;4.00;99.90;;;;;;5072112;28;19916;-75
2022/03/26 06:41:13;;;;;;;;;;;4.10;99.90;;;;;;5073660;28;19980;-75
2022/03/26 06:43:39;;;;;;;;;;;4.00;99.90;;;;;;5073521;28;19997;-75
2022/03/26 06:46:05;;;;;;;;;;;4.00;99.90;;;;;;5072967;28;19916;-75
2022/03/26 06:48:31;;;;;;;;;;;4.00;99.90;;;;;;5072605;28;19909;-75
2022/03/26 06:50:57;;;;;;;;;;;4.10;99.90;;;;;;5072843;28;19909;-75
2022/03/26 06:53:23;;;;;;;;;;;4.10;99.90;;;;;;5072628;28;20377;-75
2022/03/26 06:55:48;;;;;;;;;;;4.10;99.90;;;;;;5072821;28;20391;-75
2022/03/26 06:58:14;;;;;;;;;;;4.20;99.90;;;;;;5072224;28;19999;-75
2022/03/26 07:00:39;;;;;;;;;;;4.20;99.90;;;;;;5073178;28;19917;-75
2022/03/26 07:03:05;;;;;;;;;;;4.30;99.90;;;;;;5073079;28;19970;-75
2022/03/26 07:05:31;;;;;;;;;;;4.50;99.90;;;;;;5072248;28;19919;-76
2022/03/26 07:07:57;;;;;;;;;;;4.60;99.90;;;;;;5072671;28;19912;-76
2022/03/26 07:10:23;;;;;;;;;;;4.70;99.90;;;;;;5072438;28;20238;-75
2022/03/26 07:12:49;;;;;;;;;;;4.80;99.90;;;;;;5072499;28;20285;-75
2022/03/26 07:15:15;;;;;;;;;;;4.90;99.90;;;;;;5072390;28;19909;-75
2022/03/26 07:17:43;;;;;;;;;;;5.10;99.90;;;;;;5072966;28;19909;-75
2022/03/26 07:20:09;;;;;;;;;;;5.20;99.90;;;;;;5072410;28;19920;-75
2022/03/26 07:22:35;;;;;;;;;;;5.40;99.90;;;;;;5072016;28;20289;-75
2022/03/26 07:25:01;;;;;;;;;;;5.50;99.90;;;;;;5072026;28;19908;-75
2022/03/26 07:27:31;;;;;;;;;;;5.60;99.90;;;;;;5072186;28;19982;-74
2022/03/26 07:29:56;;;;;;;;;;;5.80;99.90;;;;;;5072660;28;20027;-74
2022/03/26 07:32:23;;;;;;;;;;;5.90;99.90;;;;;;5071794;28;19956;-75
2022/03/26 07:34:48;;;;;;;;;;;6.00;99.90;;;;;;5072294;28;19915;-75
2022/03/26 07:37:14;;;;;;;;;;;6.10;99.90;;;;;;5075336;28;20293;-75
2022/03/26 07:39:40;;;;;;;;;;;6.20;99.90;;;;;;5072288;28;20479;-75
2022/03/26 07:42:06;;;;;;;;;;;6.30;99.90;;;;;;5072375;28;19999;-75
2022/03/26 07:44:31;;;;;;;;;;;6.40;99.90;;;;;;5070477;28;19926;-75
2022/03/26 07:46:57;;;;;;;;;;;6.50;99.90;;;;;;5072407;28;20273;-75
2022/03/26 07:49:22;;;;;;;;;;;6.50;99.90;;;;;;5071622;28;19912;-75
2022/03/26 07:51:48;;;;;;;;;;;6.60;99.90;;;;;;5072036;28;19915;-74
2022/03/26 07:54:14;;;;;;;;;;;6.70;99.90;;;;;;5071386;28;19916;-75
2022/03/26 07:56:39;;;;;;;;;;;6.80;99.90;;;;;;5071637;28;20041;-75
2022/03/26 07:59:05;;;;;;;;;;;6.90;99.90;;;;;;5072281;28;20273;-75
2022/03/26 08:01:30;;;;;;;;;;;6.90;99.90;;;;;;5071833;28;19917;-74
2022/03/26 08:03:56;;;;;;;;;;;7.10;99.90;;;;;;5072583;28;19943;-75
2022/03/26 08:06:22;;;;;;;;;;;7.20;99.90;;;;;;5071950;28;19991;-74
2022/03/26 08:08:48;;;;;;;;;;;7.30;99.90;;;;;;5072376;28;19908;-74
2022/03/26 08:11:13;;;;;;;;;;;7.40;99.90;;;;;;5071978;28;20310;-75
2022/03/26 08:13:39;;;;;;;;;;;7.60;99.90;;;;;;5072226;28;19919;-75
2022/03/26 08:16:04;;;;;;;;;;;7.70;99.90;;;;;;5072510;28;20285;-75
2022/03/26 08:18:30;;;;;;;;;;;7.90;99.90;;;;;;5071305;28;19993;-75
2022/03/26 08:20:56;;;;;;;;;;;8.00;99.90;;;;;;5072044;28;19923;-75
2022/03/26 08:23:22;;;;;;;;;;;8.10;99.90;;;;;;5071344;28;20346;-75
2022/03/26 08:28:31;;;;;;;;;;;8.40;99.90;;;;;;5071157;28;19919;-75
2022/03/26 08:30:57;;;;;;;;;;;8.60;99.90;;;;;;5072028;28;20278;-75
2022/03/26 08:33:22;;;;;;;;;;;8.80;99.90;;;;;;5071193;28;19927;-74
2022/03/26 08:35:48;;;;;;;;;;;8.90;99.90;;;;;;5071975;28;19915;-74
2022/03/26 08:38:13;;;;;;;;;;;9.10;99.90;;;;;;5075041;28;19909;-74
2022/03/26 08:40:39;;;;;;;;;;;9.30;99.90;;;;;;5074853;28;19920;-75
2022/03/26 08:43:05;;;;;;;;;;;9.40;99.90;;;;;;5075395;28;19936;-73
2022/03/26 08:45:31;;;;;;;;;;;9.60;99.90;;;;;;5074636;28;19962;-75
2022/03/26 08:47:56;;;;;;;;;;;9.70;99.90;;;;;;5075630;28;19908;-74
2022/03/26 08:50:23;;;;;;;;;;;9.80;99.90;;;;;;5074695;28;20278;-75
2022/03/26 08:52:49;;;;;;;;;;;9.90;99.90;;;;;;5075392;28;19908;-75
2022/03/26 08:55:15;;;;;;;;;;;10.00;99.90;;;;;;5075302;28;19920;-75
2022/03/26 08:57:41;;;;;;;;;;;10.10;99.90;;;;;;5074651;28;19921;-75
2022/03/26 09:00:07;;;;;;;;;;;10.30;99.90;;;;;;5074853;28;19917;-75
2022/03/26 09:02:33;;;;;;;;;;;10.40;99.90;;;;;;5074456;28;19908;-75
2022/03/26 09:04:58;;;;;;;;;;;10.50;99.90;;;;;;5075086;28;19909;-75
2022/03/26 09:07:24;;;;;;;;;;;10.60;99.90;;;;;;5074437;28;19909;-76
2022/03/26 09:09:49;;;;;;;;;;;10.60;99.90;;;;;;5074733;28;19958;-76
2022/03/26 09:12:15;;;;;;;;;;;10.70;99.90;;;;;;5074707;28;19947;-75
2022/03/26 09:14:41;;;;;;;;;;;10.80;99.90;;;;;;5074087;28;20367;-75
2022/03/26 09:17:06;;;;;;;;;;;10.80;99.90;;;;;;5074561;28;19975;-75
2022/03/26 09:19:32;;;;;;;;;;;10.90;99.90;;;;;;5074171;28;19915;-76
2022/03/26 09:21:58;;;;;;;;;;;11.10;99.90;;;;;;5074616;28;20295;-75
2022/03/26 09:24:24;;;;;;;;;;;11.20;99.90;;;;;;5073897;28;19912;-75
2022/03/26 09:26:49;;;;;;;;;;;11.30;99.90;;;;;;5074299;28;19919;-75
2022/03/26 09:29:16;;;;;;;;;;;11.40;99.90;;;;;;5074450;28;19909;-75
2022/03/26 09:31:42;;;;;;;;;;;11.50;99.90;;;;;;5073418;28;20366;-76
2022/03/26 09:34:08;;;;;;;;;;;11.60;99.90;;;;;;5074462;28;19909;-75
2022/03/26 09:36:33;;;;;;;;;;;11.80;99.90;;;;;;5073441;28;19912;-76
2022/03/26 09:38:59;;;;;;;;;;;11.90;99.90;;;;;;5073966;28;20369;-76
2022/03/26 09:41:26;;;;;;;;;;;12.00;99.90;;;;;;5073881;28;19916;-76
2022/03/26 09:43:53;;;;;;;;;;;12.10;99.90;;;;;;5074324;28;20315;-75
2022/03/26 09:46:19;;;;;;;;;;;12.10;99.90;;;;;;5074244;28;19916;-76
2022/03/26 09:48:44;;;;;;;;;;;12.20;99.90;;;;;;5072760;28;19908;-76
2022/03/26 09:51:13;;;;;;;;;;;12.20;99.90;;;;;;5074059;28;20479;-75
2022/03/26 09:53:39;;;;;;;;;;;12.30;99.90;;;;;;5073657;28;19962;-76
2022/03/26 09:56:04;;;;;;;;;;;12.40;99.90;;;;;;5073441;28;19920;-76
2022/03/26 09:58:30;;;;;;;;;;;12.60;99.90;;;;;;5073191;28;19908;-76
2022/03/26 10:00:57;;;;;;;;;;;12.70;99.90;;;;;;5072205;28;20368;-75
2022/03/26 10:03:23;;;;;;;;;;;12.70;99.90;;;;;;5073232;28;20255;-75
2022/03/26 10:06:00;;;;;;;;;;;12.80;99.90;;;;;;5073981;28;19920;-75
2022/03/26 10:08:25;;;;;;;;;;;12.90;99.90;;;;;;5074160;28;20415;-76
2022/03/26 10:10:51;;;;;;;;;;;13.00;99.90;;;;;;5073996;28;19908;-76
2022/03/26 10:13:52;;;;;;;;;;;13.00;99.90;;;;;;5073194;28;19961;-76
2022/03/26 10:16:18;;;;;;;;;;;13.10;99.90;;;;;;5051218;28;19915;-77
2022/03/26 10:18:44;;;;;;;;;;;13.10;99.90;;;;;;5067891;28;19905;-76
2022/03/26 10:21:17;;;;;;;;;;;13.10;99.90;;;;;;5073315;28;19920;-75
2022/03/26 10:23:44;;;;;;;;;;;13.30;99.90;;;;;;5072835;28;19909;-75
2022/03/26 10:26:14;;;;;;;;;;;13.20;99.90;;;;;;5073554;28;19999;-76
2022/03/26 10:28:41;;;;;;;;;;;13.30;99.90;;;;;;5072652;28;19916;-76
2022/03/26 10:34:10;;;;;;;;;;;13.50;99.90;;;;;;5073332;28;19924;-75
2022/03/26 10:36:40;;;;;;;;;;;13.60;99.90;;;;;;5072476;28;19909;-75
2022/03/26 10:39:07;;;;;;;;;;;13.50;99.90;;;;;;5073182;28;19916;-75
2022/03/26 10:41:33;;;;;;;;;;;13.50;99.90;;;;;;5072503;28;19917;-75
2022/03/26 10:44:09;;;;;;;;;;;13.60;99.90;;;;;;5073334;28;19909;-75
2022/03/26 10:46:42;;;;;;;;;;;13.70;99.90;;;;;;5072767;28;19912;-75
2022/03/26 10:49:09;;;;;;;;;;;13.80;99.90;;;;;;5071599;28;19916;-75
2022/03/26 10:51:36;;;;;;;;;;;13.70;99.90;;;;;;5072120;28;19908;-75
2022/03/26 10:54:07;;;;;;;;;;;13.70;99.90;;;;;;5072580;28;19915;-75
2022/03/26 10:56:33;;;;;;;;;;;13.80;99.90;;;;;;5072445;28;19927;-75
2022/03/26 10:59:00;;;;;;;;;;;13.80;99.90;;;;;;5073070;28;19991;-75
2022/03/26 11:01:26;;;;;;;;;;;13.80;99.90;;;;;;5071570;28;19916;-75
2022/03/26 11:03:51;;;;;;;;;;;13.80;99.90;;;;;;5072483;28;19915;-75
2022/03/26 11:06:17;;;;;;;;;;;13.80;99.90;;;;;;5071687;28;19963;-76
2022/03/26 11:08:46;;;;;;;;;;;13.80;99.90;;;;;;5071980;28;19909;-76
2022/03/26 11:11:12;;;;;;;;;;;13.90;99.90;;;;;;5072510;28;19908;-76
2022/03/26 11:13:46;;;;;;;;;;;13.90;99.90;;;;;;5070716;28;19909;-76
2022/03/26 11:16:21;;;;;;;;;;;14.00;99.90;;;;;;5073147;28;19909;-76
2022/03/26 11:19:04;;;;;;;;;;;14.20;99.90;;;;;;5072113;28;19951;-76
2022/03/26 11:21:30;;;;;;;;;;;14.20;99.90;;;;;;5071952;28;19920;-76
2022/03/26 11:23:59;;;;;;;;;;;14.20;99.90;;;;;;5071747;28;19908;-76
2022/03/26 11:26:43;;;;;;;;;;;14.20;99.90;;;;;;5072929;28;19915;-76
2022/03/26 11:29:21;;;;;;;;;;;14.20;99.90;;;;;;5072098;28;20351;-76
2022/03/26 11:31:50;;;;;;;;;;;14.20;99.90;;;;;;5072026;28;20354;-76
2022/03/26 11:34:17;;;;;;;;;;;14.30;99.90;;;;;;5072168;28;20002;-76
2022/03/26 11:36:43;;;;;;;;;;;14.30;99.90;;;;;;5071910;28;19909;-76
2022/03/26 11:39:16;;;;;;;;;;;14.30;99.90;;;;;;5071001;28;19999;-76
2022/03/26 11:41:42;;;;;;;;;;;14.30;99.90;;;;;;5071878;28;19917;-76
2022/03/26 11:44:08;;;;;;;;;;;14.30;99.90;;;;;;5072045;28;19915;-76
2022/03/26 11:52:12;;;;;;;;;;;14.60;99.90;;;;;;5072185;28;19966;-76
2022/03/26 11:54:38;;;;;;;;;;;14.70;99.90;;;;;;5071450;28;19909;-76
2022/03/26 11:57:14;;;;;;;;;;;14.70;99.90;;;;;;5071982;28;19982;-77
2022/03/26 11:59:41;;;;;;;;;;;14.60;99.90;;;;;;5103873;28;20377;-78
2022/03/26 12:02:24;;;;;;;;;;;14.70;99.90;;;;;;5072060;28;19909;-77
2022/03/26 12:04:50;;;;;;;;;;;14.70;99.90;;;;;;5071460;28;19916;-77
2022/03/26 12:07:15;;;;;;;;;;;14.80;99.90;;;;;;5072026;28;20003;-77
2022/03/26 12:09:41;;;;;;;;;;;14.70;99.90;;;;;;5071063;28;20003;-77
2022/03/26 12:12:16;;;;;;;;;;;14.80;99.90;;;;;;5073393;28;19912;-77
2022/03/26 12:15:01;;;;;;;;;;;14.70;99.90;;;;;;5074848;28;20343;-77
2022/03/26 12:17:45;;;;;;;;;;;14.80;99.90;;;;;;5075617;28;20259;-77
2022/03/26 12:20:17;;;;;;;;;;;15.10;99.90;;;;;;5075600;28;19964;-77
2022/03/26 12:22:43;;;;;;;;;;;15.10;99.90;;;;;;5074924;28;19948;-77
2022/03/26 12:25:09;;;;;;;;;;;15.10;99.90;;;;;;5074117;28;19959;-77
2022/03/26 12:27:38;;;;;;;;;;;15.10;99.90;;;;;;5073665;28;19914;-77
2022/03/26 12:30:04;;;;;;;;;;;15.10;99.90;;;;;;5075881;28;20329;-77
2022/03/26 12:32:33;;;;;;;;;;;15.20;99.90;;;;;;5075518;28;19970;-77
2022/03/26 12:35:02;;;;;;;;;;;15.10;99.90;;;;;;5075840;28;19954;-77
2022/03/26 12:37:28;;;;;;;;;;;15.00;99.90;;;;;;5077562;28;19931;-75
2022/03/26 12:39:54;;;;;;;;;;;15.00;99.90;;;;;;5076834;28;20004;-75
2022/03/26 12:42:20;;;;;;;;;;;15.00;99.90;;;;;;5075735;28;20449;-75
2022/03/26 12:44:46;;;;;;;;;;;15.10;99.90;;;;;;5074720;28;19913;-75
2022/03/26 12:47:18;;;;;;;;;;;15.20;99.90;;;;;;5075161;28;20258;-75
2022/03/26 12:49:44;;;;;;;;;;;15.20;99.90;;;;;;5074551;28;19915;-75
2022/03/26 12:52:10;;;;;;;;;;;15.20;99.90;;;;;;5075144;28;19919;-75
2022/03/26 12:54:36;;;;;;;;;;;15.20;99.90;;;;;;5074532;28;19908;-75
2022/03/26 12:57:02;;;;;;;;;;;15.30;99.90;;;;;;5074705;28;19982;-75
2022/03/26 12:59:28;;;;;;;;;;;15.30;99.90;;;;;;5074601;28;19915;-75
2022/03/26 13:01:57;;;;;;;;;;;15.30;99.90;;;;;;5073953;28;20499;-75
2022/03/26 13:04:23;;;;;;;;;;;15.40;99.90;;;;;;5075530;28;20270;-75
2022/03/26 13:06:52;;;;;;;;;;;15.50;99.90;;;;;;5074250;28;19928;-75
2022/03/26 13:09:18;;;;;;;;;;;15.60;99.90;;;;;;5074864;28;19913;-74
2022/03/26 13:11:43;;;;;;;;;;;15.60;99.90;;;;;;5074137;28;19908;-75
2022/03/26 13:14:11;;;;;;;;;;;15.60;99.90;;;;;;5074963;28;20011;-75
2022/03/26 13:16:37;;;;;;;;;;;15.60;99.90;;;;;;5072729;28;19909;-75
2022/03/26 13:19:04;;;;;;;;;;;15.50;99.90;;;;;;5073294;28;19927;-76
2022/03/26 13:21:31;;;;;;;;;;;15.50;99.90;;;;;;5074430;28;19978;-75
2022/03/26 13:23:57;;;;;;;;;;;15.50;99.90;;;;;;5072798;28;19937;-75
2022/03/26 13:26:44;;;;;;;;;;;15.50;99.90;;;;;;5074521;28;19908;-76
2022/03/26 13:29:09;;;;;;;;;;;15.50;99.90;;;;;;5074623;28;19912;-76
2022/03/26 13:31:39;;;;;;;;;;;15.60;99.90;;;;;;5074507;28;19909;-75
2022/03/26 13:34:11;;;;;;;;;;;15.60;99.90;;;;;;5074474;28;19908;-75
2022/03/26 13:36:37;;;;;;;;;;;15.70;99.90;;;;;;5074178;28;19909;-76
2022/03/26 13:39:19;;;;;;;;;;;15.60;99.90;;;;;;5073899;28;20063;-76
2022/03/26 13:41:45;;;;;;;;;;;15.60;99.90;;;;;;5073625;28;19988;-76
2022/03/26 13:44:11;;;;;;;;;;;15.60;99.90;;;;;;5072623;28;19909;-76
2022/03/26 13:46:37;;;;;;;;;;;15.70;99.90;;;;;;5074184;28;19908;-76
2022/03/26 13:49:03;;;;;;;;;;;15.60;99.90;;;;;;5074204;28;20269;-77
2022/03/26 13:51:37;;;;;;;;;;;15.60;99.90;;;;;;5077160;28;20250;-76
2022/03/26 13:54:04;;;;;;;;;;;15.70;99.90;;;;;;5073914;28;19915;-76
2022/03/26 13:56:31;;;;;;;;;;;15.70;99.90;;;;;;5074047;28;19943;-76
2022/03/26 13:59:00;;;;;;;;;;;15.70;99.90;;;;;;5073082;28;19954;-76
2022/03/26 14:01:26;;;;;;;;;;;15.70;99.90;;;;;;5073668;28;20347;-76
2022/03/26 14:03:52;;;;;;;;;;;15.70;99.90;;;;;;5073367;28;19966;-76
2022/03/26 14:06:18;;;;;;;;;;;15.80;99.90;;;;;;5073888;28;19951;-76
2022/03/26 14:08:47;;;;;;;;;;;15.90;99.90;;;;;;5072377;28;19952;-76
2022/03/26 14:11:14;;;;;;;;;;;16.00;99.90;;;;;;5072926;28;19909;-76
2022/03/26 14:13:39;;;;;;;;;;;15.90;99.90;;;;;;5071723;28;19919;-76
2022/03/26 14:16:05;;;;;;;;;;;16.00;99.90;;;;;;5073470;28;19908;-76
2022/03/26 14:18:30;;;;;;;;;;;15.90;99.90;;;;;;5073154;28;20331;-76
2022/03/26 14:20:56;;;;;;;;;;;15.90;99.90;;;;;;5072688;28;19968;-76
2022/03/26 14:23:22;;;;;;;;;;;15.80;99.90;;;;;;5071707;28;19913;-76
2022/03/26 14:25:49;;;;;;;;;;;15.70;99.90;;;;;;5072976;28;20007;-77
2022/03/26 14:28:16;;;;;;;;;;;15.70;99.90;;;;;;5072128;28;19915;-76
2022/03/26 14:30:42;;;;;;;;;;;15.90;99.90;;;;;;5073131;28;19915;-76
2022/03/26 14:33:11;;;;;;;;;;;15.90;99.90;;;;;;5072147;28;20380;-76
2022/03/26 14:35:37;;;;;;;;;;;15.90;99.90;;;;;;5072968;28;20277;-76